sensor_id;sensor_type;location;lat;lon;timestamp;temperature;humidity
32446;DHT22;18899;50.748;7.102;2023-12-07T00:01:51;3.20;99.90
32446;DHT22;18899;50.748;7.102;2023-12-07T00:04:16;3.20;99.90
32446;DHT22;18899;50.748;7.102;2023-12-07T00:06:42;3.30;99.90
32446;DHT22;18899;50.748;7.102;2023-12-07T00:09:07;3.40;99.90
32446;DHT22;18899;50.748;7.102;2023-12-07T00:11:33;3.40;99.90
32446;DHT22;18899;50.748;7.102;2023-12-07T00:13:58;3.50;99.90
32446;DHT22;18899;50.748;7.102;2023-12-07T00:16:24;3.50;99.90
32446;DHT22;18899;50.748;7.102;2023-12-07T00:18:50;3.70;99.90
32446;DHT22;18899;50.748;7.102;2023-12-07T00:21:15;3.70;99.90
32446;DHT22;18899;50.748;7.102;2023-12-07T00:23:41;3.80;99.90
32446;DHT22;18899;50.748;7.102;2023-12-07T00:26:06;3.80;99.90
32446;DHT22;18899;50.748;7.102;2023-12-07T00:28:32;3.90;99.90
32446;DHT22;18899;50.748;7.102;2023-12-07T00:30:57;3.90;99.90
32446;DHT22;18899;50.748;7.102;2023-12-07T00:33:23;3.90;99.90
32446;DHT22;18899;50.748;7.102;2023-12-07T00:35:49;3.90;99.90
32446;DHT22;18899;50.748;7.102;2023-12-07T00:38:14;4.00;99.90
32446;DHT22;18899;50.748;7.102;2023-12-07T00:40:40;4.00;99.90
32446;DHT22;18899;50.748;7.102;2023-12-07T00:43:08;4.10;99.90
32446;DHT22;18899;50.748;7.102;2023-12-07T00:45:34;4.10;99.90
32446;DHT22;18899;50.748;7.102;2023-12-07T00:47:59;4.10;99.90
32446;DHT22;18899;50.748;7.102;2023-12-07T00:50:25;4.10;99.90
32446;DHT22;18899;50.748;7.102;2023-12-07T00:52:51;4.20;99.90
32446;DHT22;18899;50.748;7.102;2023-12-07T00:55:16;4.20;99.90
32446;DHT22;18899;50.748;7.102;2023-12-07T00:57:42;4.30;99.90
32446;DHT22;18899;50.748;7.102;2023-12-07T01:00:08;4.40;99.90
32446;DHT22;18899;50.748;7.102;2023-12-07T01:02:35;4.40;99.90
32446;DHT22;18899;50.748;7.102;2023-12-07T01:05:01;4.50;99.90
32446;DHT22;18899;50.748;7.102;2023-12-07T01:07:26;4.50;99.90
32446;DHT22;18899;50.748;7.102;2023-12-07T01:09:52;4.50;99.90
32446;DHT22;18899;50.748;7.102;2023-12-07T01:12:18;4.60;99.90
32446;DHT22;18899;50.748;7.102;2023-12-07T01:14:43;4.60;99.90
32446;DHT22;18899;50.748;7.102;2023-12-07T01:17:09;4.70;99.90
32446;DHT22;18899;50.748;7.102;2023-12-07T01:19:34;4.80;99.90
32446;DHT22;18899;50.748;7.102;2023-12-07T01:22:00;4.80;99.90
32446;DHT22;18899;50.748;7.102;2023-12-07T01:24:25;4.80;99.90
32446;DHT22;18899;50.748;7.102;2023-12-07T01:26:51;4.80;99.90
32446;DHT22;18899;50.748;7.102;2023-12-07T01:29:16;4.70;99.90
32446;DHT22;18899;50.748;7.102;2023-12-07T01:31:43;4.70;99.90
32446;DHT22;18899;50.748;7.102;2023-12-07T01:34:09;4.70;99.90
32446;DHT22;18899;50.748;7.102;2023-12-07T01:36:35;4.80;99.90
32446;DHT22;18899;50.748;7.102;2023-12-07T01:39:00;4.80;99.90
32446;DHT22;18899;50.748;7.102;2023-12-07T01:41:26;4.80;99.90
32446;DHT22;18899;50.748;7.102;2023-12-07T01:43:51;4.90;99.90
32446;DHT22;18899;50.748;7.102;2023-12-07T01:46:17;4.80;99.90
32446;DHT22;18899;50.748;7.102;2023-12-07T01:48:43;4.90;99.90
32446;DHT22;18899;50.748;7.102;2023-12-07T01:51:09;4.80;99.90
32446;DHT22;18899;50.748;7.102;2023-12-07T01:53:36;4.70;99.90
32446;DHT22;18899;50.748;7.102;2023-12-07T01:56:03;4.60;99.90
32446;DHT22;18899;50.748;7.102;2023-12-07T01:58:29;4.60;99.90
32446;DHT22;18899;50.748;7.102;2023-12-07T02:00:55;4.50;99.90
32446;DHT22;18899;50.748;7.102;2023-12-07T02:03:21;4.50;99.90
32446;DHT22;18899;50.748;7.102;2023-12-07T02:05:48;4.60;99.90
32446;DHT22;18899;50.748;7.102;2023-12-07T02:08:14;4.60;99.90
32446;DHT22;18899;50.748;7.102;2023-12-07T02:10:40;4.70;99.90
32446;DHT22;18899;50.748;7.102;2023-12-07T02:13:06;4.80;99.90
32446;DHT22;18899;50.748;7.102;2023-12-07T02:15:31;4.80;99.90
32446;DHT22;18899;50.748;7.102;2023-12-07T02:20:34;4.90;99.90
32446;DHT22;18899;50.748;7.102;2023-12-07T02:23:04;4.90;99.90
32446;DHT22;18899;50.748;7.102;2023-12-07T02:25:51;4.80;99.90
32446;DHT22;18899;50.748;7.102;2023-12-07T02:28:17;4.80;99.90
32446;DHT22;18899;50.748;7.102;2023-12-07T02:30:43;4.90;99.90
32446;DHT22;18899;50.748;7.102;2023-12-07T02:33:09;4.80;99.90
32446;DHT22;18899;50.748;7.102;2023-12-07T02:35:36;4.70;99.90
32446;DHT22;18899;50.748;7.102;2023-12-07T02:38:02;4.60;99.90
32446;DHT22;18899;50.748;7.102;2023-12-07T02:40:29;4.70;99.90
32446;DHT22;18899;50.748;7.102;2023-12-07T02:42:56;4.60;99.90
32446;DHT22;18899;50.748;7.102;2023-12-07T02:45:22;4.60;99.90
32446;DHT22;18899;50.748;7.102;2023-12-07T02:47:48;4.60;99.90
32446;DHT22;18899;50.748;7.102;2023-12-07T02:50:14;4.60;99.90
32446;DHT22;18899;50.748;7.102;2023-12-07T02:52:40;4.60;99.90
32446;DHT22;18899;50.748;7.102;2023-12-07T02:55:05;4.60;99.90
32446;DHT22;18899;50.748;7.102;2023-12-07T02:57:31;4.70;99.90
32446;DHT22;18899;50.748;7.102;2023-12-07T02:59:59;4.70;99.90
32446;DHT22;18899;50.748;7.102;2023-12-07T03:02:25;4.70;99.90
32446;DHT22;18899;50.748;7.102;2023-12-07T03:04:50;4.60;99.90
32446;DHT22;18899;50.748;7.102;2023-12-07T03:07:16;4.70;99.90
32446;DHT22;18899;50.748;7.102;2023-12-07T03:09:41;4.80;99.90
32446;DHT22;18899;50.748;7.102;2023-12-07T03:12:07;4.80;99.90
32446;DHT22;18899;50.748;7.102;2023-12-07T03:14:33;4.80;99.90
32446;DHT22;18899;50.748;7.102;2023-12-07T03:16:58;4.80;99.90
32446;DHT22;18899;50.748;7.102;2023-12-07T03:19:24;4.80;99.90
32446;DHT22;18899;50.748;7.102;2023-12-07T03:21:50;4.90;99.90
32446;DHT22;18899;50.748;7.102;2023-12-07T03:24:15;4.90;99.90
32446;DHT22;18899;50.748;7.102;2023-12-07T03:26:41;5.00;99.90
32446;DHT22;18899;50.748;7.102;2023-12-07T03:29:06;5.00;99.90
32446;DHT22;18899;50.748;7.102;2023-12-07T03:31:32;5.00;99.90
32446;DHT22;18899;50.748;7.102;2023-12-07T03:33:58;5.10;99.90
32446;DHT22;18899;50.748;7.102;2023-12-07T03:36:24;5.00;99.90
32446;DHT22;18899;50.748;7.102;2023-12-07T03:38:50;4.90;99.90
32446;DHT22;18899;50.748;7.102;2023-12-07T03:41:15;4.90;99.90
32446;DHT22;18899;50.748;7.102;2023-12-07T03:43:41;4.80;99.90
32446;DHT22;18899;50.748;7.102;2023-12-07T03:46:07;4.80;99.90
32446;DHT22;18899;50.748;7.102;2023-12-07T03:48:33;4.90;99.90
32446;DHT22;18899;50.748;7.102;2023-12-07T03:50:59;4.90;99.90
32446;DHT22;18899;50.748;7.102;2023-12-07T03:53:25;4.90;99.90
32446;DHT22;18899;50.748;7.102;2023-12-07T03:55:50;4.90;99.90
32446;DHT22;18899;50.748;7.102;2023-12-07T03:58:16;4.90;99.90
32446;DHT22;18899;50.748;7.102;2023-12-07T04:00:42;4.80;99.90
32446;DHT22;18899;50.748;7.102;2023-12-07T04:03:07;4.80;99.90
32446;DHT22;18899;50.748;7.102;2023-12-07T04:05:33;4.80;99.90
32446;DHT22;18899;50.748;7.102;2023-12-07T04:07:59;4.90;99.90
32446;DHT22;18899;50.748;7.102;2023-12-07T04:10:25;4.90;99.90
32446;DHT22;18899;50.748;7.102;2023-12-07T04:12:50;5.00;99.90
32446;DHT22;18899;50.748;7.102;2023-12-07T04:15:20;5.00;99.90
32446;DHT22;18899;50.748;7.102;2023-12-07T04:17:46;4.90;99.90
32446;DHT22;18899;50.748;7.102;2023-12-07T04:20:12;4.90;99.90
32446;DHT22;18899;50.748;7.102;2023-12-07T04:22:39;4.90;99.90
32446;DHT22;18899;50.748;7.102;2023-12-07T04:25:05;4.80;99.90
32446;DHT22;18899;50.748;7.102;2023-12-07T04:27:31;4.80;99.90
32446;DHT22;18899;50.748;7.102;2023-12-07T04:29:57;4.90;99.90
32446;DHT22;18899;50.748;7.102;2023-12-07T04:32:23;4.80;99.90
32446;DHT22;18899;50.748;7.102;2023-12-07T04:34:48;4.90;99.90
32446;DHT22;18899;50.748;7.102;2023-12-07T04:37:14;5.00;99.90
32446;DHT22;18899;50.748;7.102;2023-12-07T04:39:39;4.90;99.90
32446;DHT22;18899;50.748;7.102;2023-12-07T04:42:05;4.90;99.90
32446;DHT22;18899;50.748;7.102;2023-12-07T04:44:30;4.80;99.90
32446;DHT22;18899;50.748;7.102;2023-12-07T04:46:56;4.70;99.90
32446;DHT22;18899;50.748;7.102;2023-12-07T04:49:21;4.70;99.90
32446;DHT22;18899;50.748;7.102;2023-12-07T04:51:47;4.60;99.90
32446;DHT22;18899;50.748;7.102;2023-12-07T04:54:13;4.50;99.90
32446;DHT22;18899;50.748;7.102;2023-12-07T04:56:41;4.40;99.90
32446;DHT22;18899;50.748;7.102;2023-12-07T04:59:06;4.40;99.90
32446;DHT22;18899;50.748;7.102;2023-12-07T05:01:32;4.40;99.90
32446;DHT22;18899;50.748;7.102;2023-12-07T05:03:57;4.30;99.90
32446;DHT22;18899;50.748;7.102;2023-12-07T05:06:23;4.30;99.90
32446;DHT22;18899;50.748;7.102;2023-12-07T05:08:48;4.30;99.90
32446;DHT22;18899;50.748;7.102;2023-12-07T05:11:14;4.40;99.90
32446;DHT22;18899;50.748;7.102;2023-12-07T05:13:39;4.40;99.90
32446;DHT22;18899;50.748;7.102;2023-12-07T05:16:05;4.40;99.90
32446;DHT22;18899;50.748;7.102;2023-12-07T05:18:31;4.40;99.90
32446;DHT22;18899;50.748;7.102;2023-12-07T05:20:56;4.40;99.90
32446;DHT22;18899;50.748;7.102;2023-12-07T05:23:22;4.30;99.90
32446;DHT22;18899;50.748;7.102;2023-12-07T05:25:47;4.20;99.90
32446;DHT22;18899;50.748;7.102;2023-12-07T05:28:13;4.20;99.90
32446;DHT22;18899;50.748;7.102;2023-12-07T05:30:38;4.20;99.90
32446;DHT22;18899;50.748;7.102;2023-12-07T05:33:04;4.10;99.90
32446;DHT22;18899;50.748;7.102;2023-12-07T05:35:29;4.10;99.90
32446;DHT22;18899;50.748;7.102;2023-12-07T05:37:55;4.10;99.90
32446;DHT22;18899;50.748;7.102;2023-12-07T05:40:20;4.10;99.90
32446;DHT22;18899;50.748;7.102;2023-12-07T05:42:49;4.10;99.90
32446;DHT22;18899;50.748;7.102;2023-12-07T05:45:15;4.10;99.90
32446;DHT22;18899;50.748;7.102;2023-12-07T05:47:41;4.10;99.90
32446;DHT22;18899;50.748;7.102;2023-12-07T05:50:07;3.90;99.90
32446;DHT22;18899;50.748;7.102;2023-12-07T05:52:33;3.90;99.90
32446;DHT22;18899;50.748;7.102;2023-12-07T05:54:58;3.80;99.90
32446;DHT22;18899;50.748;7.102;2023-12-07T05:57:24;3.60;99.90
32446;DHT22;18899;50.748;7.102;2023-12-07T05:59:50;3.50;99.90
32446;DHT22;18899;50.748;7.102;2023-12-07T06:02:15;3.50;99.90
32446;DHT22;18899;50.748;7.102;2023-12-07T06:04:41;3.60;99.90
32446;DHT22;18899;50.748;7.102;2023-12-07T06:07:06;3.50;99.90
32446;DHT22;18899;50.748;7.102;2023-12-07T06:09:32;3.40;99.90
32446;DHT22;18899;50.748;7.102;2023-12-07T06:11:58;3.30;99.90
32446;DHT22;18899;50.748;7.102;2023-12-07T06:14:23;3.20;99.90
32446;DHT22;18899;50.748;7.102;2023-12-07T06:16:49;3.20;99.90
32446;DHT22;18899;50.748;7.102;2023-12-07T06:19:15;3.20;99.90
32446;DHT22;18899;50.748;7.102;2023-12-07T06:21:40;3.10;99.90
32446;DHT22;18899;50.748;7.102;2023-12-07T06:24:06;3.10;99.90
32446;DHT22;18899;50.748;7.102;2023-12-07T06:26:32;3.10;99.90
32446;DHT22;18899;50.748;7.102;2023-12-07T06:28:58;3.10;99.90
32446;DHT22;18899;50.748;7.102;2023-12-07T06:31:23;3.10;99.90
32446;DHT22;18899;50.748;7.102;2023-12-07T06:33:49;3.00;99.90
32446;DHT22;18899;50.748;7.102;2023-12-07T06:36:19;3.00;99.90
32446;DHT22;18899;50.748;7.102;2023-12-07T06:38:45;3.00;99.90
32446;DHT22;18899;50.748;7.102;2023-12-07T06:41:11;2.90;99.90
32446;DHT22;18899;50.748;7.102;2023-12-07T06:43:36;2.90;99.90
32446;DHT22;18899;50.748;7.102;2023-12-07T06:46:02;2.80;99.90
32446;DHT22;18899;50.748;7.102;2023-12-07T06:48:28;2.70;99.90
32446;DHT22;18899;50.748;7.102;2023-12-07T06:50:53;2.50;99.90
32446;DHT22;18899;50.748;7.102;2023-12-07T06:53:19;2.50;99.90
32446;DHT22;18899;50.748;7.102;2023-12-07T06:55:44;2.60;99.90
32446;DHT22;18899;50.748;7.102;2023-12-07T06:58:10;2.50;99.90
32446;DHT22;18899;50.748;7.102;2023-12-07T07:00:35;2.50;99.90
32446;DHT22;18899;50.748;7.102;2023-12-07T07:03:01;2.60;99.90
32446;DHT22;18899;50.748;7.102;2023-12-07T07:05:27;2.50;99.90
32446;DHT22;18899;50.748;7.102;2023-12-07T07:07:53;2.60;99.90
32446;DHT22;18899;50.748;7.102;2023-12-07T07:10:18;2.50;99.90
32446;DHT22;18899;50.748;7.102;2023-12-07T07:12:44;2.50;99.90
32446;DHT22;18899;50.748;7.102;2023-12-07T07:15:09;2.50;99.90
32446;DHT22;18899;50.748;7.102;2023-12-07T07:17:35;2.50;99.90
32446;DHT22;18899;50.748;7.102;2023-12-07T07:20:01;2.50;99.90
32446;DHT22;18899;50.748;7.102;2023-12-07T07:22:26;2.40;99.90
32446;DHT22;18899;50.748;7.102;2023-12-07T07:24:52;2.40;99.90
32446;DHT22;18899;50.748;7.102;2023-12-07T07:27:17;2.40;99.90
32446;DHT22;18899;50.748;7.102;2023-12-07T07:29:43;2.40;99.90
32446;DHT22;18899;50.748;7.102;2023-12-07T07:32:09;2.40;99.90
32446;DHT22;18899;50.748;7.102;2023-12-07T07:34:35;2.30;99.90
32446;DHT22;18899;50.748;7.102;2023-12-07T07:37:01;2.40;99.90
32446;DHT22;18899;50.748;7.102;2023-12-07T07:39:28;2.40;99.90
32446;DHT22;18899;50.748;7.102;2023-12-07T07:41:54;2.50;99.90
32446;DHT22;18899;50.748;7.102;2023-12-07T07:44:19;2.60;99.90
32446;DHT22;18899;50.748;7.102;2023-12-07T07:46:44;2.70;99.90
32446;DHT22;18899;50.748;7.102;2023-12-07T07:49:11;3.00;99.90
32446;DHT22;18899;50.748;7.102;2023-12-07T07:51:37;3.00;99.90
32446;DHT22;18899;50.748;7.102;2023-12-07T07:54:03;3.10;99.90
32446;DHT22;18899;50.748;7.102;2023-12-07T07:56:29;3.20;99.90
32446;DHT22;18899;50.748;7.102;2023-12-07T07:58:54;3.30;99.90
32446;DHT22;18899;50.748;7.102;2023-12-07T08:01:20;3.30;99.90
32446;DHT22;18899;50.748;7.102;2023-12-07T08:03:45;3.50;99.90
32446;DHT22;18899;50.748;7.102;2023-12-07T08:06:11;3.50;99.90
32446;DHT22;18899;50.748;7.102;2023-12-07T08:08:36;3.60;99.90
32446;DHT22;18899;50.748;7.102;2023-12-07T08:11:02;3.80;99.90
32446;DHT22;18899;50.748;7.102;2023-12-07T08:13:28;3.90;99.90
32446;DHT22;18899;50.748;7.102;2023-12-07T08:15:53;4.00;99.90
32446;DHT22;18899;50.748;7.102;2023-12-07T08:18:19;4.00;99.90
32446;DHT22;18899;50.748;7.102;2023-12-07T08:20:44;4.00;99.90
32446;DHT22;18899;50.748;7.102;2023-12-07T08:23:11;3.80;99.90
32446;DHT22;18899;50.748;7.102;2023-12-07T08:25:39;3.80;99.90
32446;DHT22;18899;50.748;7.102;2023-12-07T08:28:06;3.90;99.90
32446;DHT22;18899;50.748;7.102;2023-12-07T08:30:34;4.00;99.90
32446;DHT22;18899;50.748;7.102;2023-12-07T08:33:00;4.00;99.90
32446;DHT22;18899;50.748;7.102;2023-12-07T08:35:26;4.20;99.90
32446;DHT22;18899;50.748;7.102;2023-12-07T08:37:51;4.30;99.90
32446;DHT22;18899;50.748;7.102;2023-12-07T08:40:17;4.40;99.90
32446;DHT22;18899;50.748;7.102;2023-12-07T08:42:46;4.70;99.90
32446;DHT22;18899;50.748;7.102;2023-12-07T08:45:13;5.20;99.90
32446;DHT22;18899;50.748;7.102;2023-12-07T08:47:41;5.80;99.90
32446;DHT22;18899;50.748;7.102;2023-12-07T08:50:07;6.30;99.90
32446;DHT22;18899;50.748;7.102;2023-12-07T08:52:33;6.40;99.90
32446;DHT22;18899;50.748;7.102;2023-12-07T08:54:59;6.40;99.90
32446;DHT22;18899;50.748;7.102;2023-12-07T08:57:25;6.40;99.90
32446;DHT22;18899;50.748;7.102;2023-12-07T08:59:50;6.50;99.90
32446;DHT22;18899;50.748;7.102;2023-12-07T09:02:16;6.60;99.90
32446;DHT22;18899;50.748;7.102;2023-12-07T09:04:41;6.70;99.90
32446;DHT22;18899;50.748;7.102;2023-12-07T09:07:07;6.40;99.90
32446;DHT22;18899;50.748;7.102;2023-12-07T09:09:34;6.50;99.90
32446;DHT22;18899;50.748;7.102;2023-12-07T09:12:00;6.40;99.90
32446;DHT22;18899;50.748;7.102;2023-12-07T09:14:25;6.10;99.90
32446;DHT22;18899;50.748;7.102;2023-12-07T09:16:52;6.00;99.90
32446;DHT22;18899;50.748;7.102;2023-12-07T09:19:17;6.00;99.90
32446;DHT22;18899;50.748;7.102;2023-12-07T09:21:43;6.30;99.90
32446;DHT22;18899;50.748;7.102;2023-12-07T09:24:09;6.40;99.90
32446;DHT22;18899;50.748;7.102;2023-12-07T09:26:35;6.60;99.90
32446;DHT22;18899;50.748;7.102;2023-12-07T09:29:01;6.80;99.90
32446;DHT22;18899;50.748;7.102;2023-12-07T09:31:27;7.00;99.90
32446;DHT22;18899;50.748;7.102;2023-12-07T09:33:52;7.40;99.90
32446;DHT22;18899;50.748;7.102;2023-12-07T09:36:19;7.60;99.90
32446;DHT22;18899;50.748;7.102;2023-12-07T09:38:46;7.80;99.90
32446;DHT22;18899;50.748;7.102;2023-12-07T09:41:12;7.90;99.90
32446;DHT22;18899;50.748;7.102;2023-12-07T09:43:38;8.20;99.90
32446;DHT22;18899;50.748;7.102;2023-12-07T09:46:04;8.50;99.90
32446;DHT22;18899;50.748;7.102;2023-12-07T09:48:31;9.40;99.90
32446;DHT22;18899;50.748;7.102;2023-12-07T09:50:56;10.10;99.90
32446;DHT22;18899;50.748;7.102;2023-12-07T09:53:22;10.30;99.50
32446;DHT22;18899;50.748;7.102;2023-12-07T09:55:48;10.60;98.10
32446;DHT22;18899;50.748;7.102;2023-12-07T09:58:14;10.90;96.20
32446;DHT22;18899;50.748;7.102;2023-12-07T10:00:40;11.00;95.00
32446;DHT22;18899;50.748;7.102;2023-12-07T10:03:06;10.80;95.00
32446;DHT22;18899;50.748;7.102;2023-12-07T10:05:53;10.10;94.60
32446;DHT22;18899;50.748;7.102;2023-12-07T10:08:46;9.00;97.40
32446;DHT22;18899;50.748;7.102;2023-12-07T10:11:12;8.10;99.20
32446;DHT22;18899;50.748;7.102;2023-12-07T10:13:38;7.50;99.90
32446;DHT22;18899;50.748;7.102;2023-12-07T10:16:14;7.10;99.90
32446;DHT22;18899;50.748;7.102;2023-12-07T10:18:41;6.70;99.90
32446;DHT22;18899;50.748;7.102;2023-12-07T10:21:09;6.50;99.90
32446;DHT22;18899;50.748;7.102;2023-12-07T10:23:40;6.20;99.90
32446;DHT22;18899;50.748;7.102;2023-12-07T10:26:06;6.10;99.90
32446;DHT22;18899;50.748;7.102;2023-12-07T10:28:34;6.10;99.90
32446;DHT22;18899;50.748;7.102;2023-12-07T10:31:01;6.20;99.90
32446;DHT22;18899;50.748;7.102;2023-12-07T10:33:26;6.20;99.90
32446;DHT22;18899;50.748;7.102;2023-12-07T10:35:52;6.10;99.90
32446;DHT22;18899;50.748;7.102;2023-12-07T10:38:17;6.00;99.90
32446;DHT22;18899;50.748;7.102;2023-12-07T10:40:46;5.80;99.90
32446;DHT22;18899;50.748;7.102;2023-12-07T10:43:12;5.80;99.90
32446;DHT22;18899;50.748;7.102;2023-12-07T10:45:39;5.90;99.90
32446;DHT22;18899;50.748;7.102;2023-12-07T10:48:08;5.80;99.90
32446;DHT22;18899;50.748;7.102;2023-12-07T10:50:35;5.80;99.90
32446;DHT22;18899;50.748;7.102;2023-12-07T10:53:09;5.90;99.90
32446;DHT22;18899;50.748;7.102;2023-12-07T10:55:41;5.90;99.90
32446;DHT22;18899;50.748;7.102;2023-12-07T10:58:09;5.80;99.90
32446;DHT22;18899;50.748;7.102;2023-12-07T11:00:35;5.80;99.90
32446;DHT22;18899;50.748;7.102;2023-12-07T11:03:01;5.80;99.90
32446;DHT22;18899;50.748;7.102;2023-12-07T11:05:29;5.70;99.90
32446;DHT22;18899;50.748;7.102;2023-12-07T11:08:03;5.60;99.90
32446;DHT22;18899;50.748;7.102;2023-12-07T11:10:43;5.50;99.90
32446;DHT22;18899;50.748;7.102;2023-12-07T11:13:17;5.40;99.90
32446;DHT22;18899;50.748;7.102;2023-12-07T11:15:44;5.50;99.90
32446;DHT22;18899;50.748;7.102;2023-12-07T11:18:11;5.50;99.90
32446;DHT22;18899;50.748;7.102;2023-12-07T11:20:46;5.40;99.90
32446;DHT22;18899;50.748;7.102;2023-12-07T11:23:16;5.30;99.90
32446;DHT22;18899;50.748;7.102;2023-12-07T11:25:43;5.30;99.90
32446;DHT22;18899;50.748;7.102;2023-12-07T11:28:11;5.20;99.90
32446;DHT22;18899;50.748;7.102;2023-12-07T11:30:37;5.40;99.90
32446;DHT22;18899;50.748;7.102;2023-12-07T11:33:04;5.40;99.90
32446;DHT22;18899;50.748;7.102;2023-12-07T11:35:30;5.40;99.90
32446;DHT22;18899;50.748;7.102;2023-12-07T11:38:08;5.30;99.90
32446;DHT22;18899;50.748;7.102;2023-12-07T11:40:36;5.40;99.90
32446;DHT22;18899;50.748;7.102;2023-12-07T11:43:02;5.40;99.90
32446;DHT22;18899;50.748;7.102;2023-12-07T11:45:49;5.30;99.90
32446;DHT22;18899;50.748;7.102;2023-12-07T11:48:15;5.30;99.90
32446;DHT22;18899;50.748;7.102;2023-12-07T11:50:59;5.30;99.90
32446;DHT22;18899;50.748;7.102;2023-12-07T11:53:29;5.20;99.90
32446;DHT22;18899;50.748;7.102;2023-12-07T11:56:09;5.30;99.90
32446;DHT22;18899;50.748;7.102;2023-12-07T11:58:36;5.20;99.90
32446;DHT22;18899;50.748;7.102;2023-12-07T12:01:03;5.10;99.90
32446;DHT22;18899;50.748;7.102;2023-12-07T12:03:30;5.20;99.90
32446;DHT22;18899;50.748;7.102;2023-12-07T12:05:58;5.20;99.90
32446;DHT22;18899;50.748;7.102;2023-12-07T12:08:29;5.30;99.90
32446;DHT22;18899;50.748;7.102;2023-12-07T12:10:56;5.30;99.90
32446;DHT22;18899;50.748;7.102;2023-12-07T12:13:28;5.40;99.90
32446;DHT22;18899;50.748;7.102;2023-12-07T12:15:55;5.30;99.90
32446;DHT22;18899;50.748;7.102;2023-12-07T12:18:21;5.30;99.90
32446;DHT22;18899;50.748;7.102;2023-12-07T12:20:47;5.20;99.90
32446;DHT22;18899;50.748;7.102;2023-12-07T12:23:15;5.10;99.90
32446;DHT22;18899;50.748;7.102;2023-12-07T12:25:41;5.00;99.90
32446;DHT22;18899;50.748;7.102;2023-12-07T12:28:07;5.00;99.90
32446;DHT22;18899;50.748;7.102;2023-12-07T12:30:33;4.90;99.90
32446;DHT22;18899;50.748;7.102;2023-12-07T12:32:59;4.90;99.90
32446;DHT22;18899;50.748;7.102;2023-12-07T12:35:25;5.00;99.90
32446;DHT22;18899;50.748;7.102;2023-12-07T12:37:51;5.00;99.90
32446;DHT22;18899;50.748;7.102;2023-12-07T12:40:18;5.00;99.90
32446;DHT22;18899;50.748;7.102;2023-12-07T12:42:49;5.10;99.90
32446;DHT22;18899;50.748;7.102;2023-12-07T12:45:15;5.10;99.90
32446;DHT22;18899;50.748;7.102;2023-12-07T12:47:42;5.20;99.90
32446;DHT22;18899;50.748;7.102;2023-12-07T12:50:12;5.20;99.90
32446;DHT22;18899;50.748;7.102;2023-12-07T12:52:40;5.20;99.90
32446;DHT22;18899;50.748;7.102;2023-12-07T12:55:10;5.30;99.90
32446;DHT22;18899;50.748;7.102;2023-12-07T12:57:36;5.40;99.90
32446;DHT22;18899;50.748;7.102;2023-12-07T13:00:02;5.30;99.90
32446;DHT22;18899;50.748;7.102;2023-12-07T13:02:28;5.40;99.90
32446;DHT22;18899;50.748;7.102;2023-12-07T13:04:54;5.30;99.90
32446;DHT22;18899;50.748;7.102;2023-12-07T13:07:21;5.20;99.90
32446;DHT22;18899;50.748;7.102;2023-12-07T13:09:46;5.30;99.90
32446;DHT22;18899;50.748;7.102;2023-12-07T13:12:12;5.30;99.90
32446;DHT22;18899;50.748;7.102;2023-12-07T13:14:38;5.20;99.90
32446;DHT22;18899;50.748;7.102;2023-12-07T13:17:05;5.20;99.90
32446;DHT22;18899;50.748;7.102;2023-12-07T13:19:32;5.20;99.90
32446;DHT22;18899;50.748;7.102;2023-12-07T13:21:58;5.20;99.90
32446;DHT22;18899;50.748;7.102;2023-12-07T13:24:23;5.10;99.90
32446;DHT22;18899;50.748;7.102;2023-12-07T13:26:49;5.20;99.90
32446;DHT22;18899;50.748;7.102;2023-12-07T13:29:15;5.20;99.90
32446;DHT22;18899;50.748;7.102;2023-12-07T13:31:40;5.20;99.90
32446;DHT22;18899;50.748;7.102;2023-12-07T13:34:06;5.20;99.90
32446;DHT22;18899;50.748;7.102;2023-12-07T13:36:31;5.00;99.90
32446;DHT22;18899;50.748;7.102;2023-12-07T13:38:59;5.20;99.90
32446;DHT22;18899;50.748;7.102;2023-12-07T13:41:27;5.20;99.90
32446;DHT22;18899;50.748;7.102;2023-12-07T13:43:53;5.30;99.90
32446;DHT22;18899;50.748;7.102;2023-12-07T13:46:18;5.20;99.90
32446;DHT22;18899;50.748;7.102;2023-12-07T13:48:44;5.20;99.90
32446;DHT22;18899;50.748;7.102;2023-12-07T13:51:10;5.20;99.90
32446;DHT22;18899;50.748;7.102;2023-12-07T13:53:36;5.30;99.90
32446;DHT22;18899;50.748;7.102;2023-12-07T13:56:03;5.30;99.90
32446;DHT22;18899;50.748;7.102;2023-12-07T13:58:30;5.30;99.90
32446;DHT22;18899;50.748;7.102;2023-12-07T14:00:55;5.40;99.90
32446;DHT22;18899;50.748;7.102;2023-12-07T14:03:21;5.40;99.90
32446;DHT22;18899;50.748;7.102;2023-12-07T14:05:46;5.30;99.90
32446;DHT22;18899;50.748;7.102;2023-12-07T14:08:13;5.20;99.90
32446;DHT22;18899;50.748;7.102;2023-12-07T14:10:38;5.20;99.90
32446;DHT22;18899;50.748;7.102;2023-12-07T14:13:04;5.30;99.90
32446;DHT22;18899;50.748;7.102;2023-12-07T14:15:30;5.20;99.90
32446;DHT22;18899;50.748;7.102;2023-12-07T14:17:59;5.20;99.90
32446;DHT22;18899;50.748;7.102;2023-12-07T14:20:24;5.30;99.90
32446;DHT22;18899;50.748;7.102;2023-12-07T14:22:53;5.30;99.90
32446;DHT22;18899;50.748;7.102;2023-12-07T14:25:18;5.20;99.90
32446;DHT22;18899;50.748;7.102;2023-12-07T14:27:44;5.10;99.90
32446;DHT22;18899;50.748;7.102;2023-12-07T14:30:10;4.90;99.90
32446;DHT22;18899;50.748;7.102;2023-12-07T14:32:36;5.00;99.90
32446;DHT22;18899;50.748;7.102;2023-12-07T14:35:02;4.90;99.90
32446;DHT22;18899;50.748;7.102;2023-12-07T14:37:27;5.00;99.90
32446;DHT22;18899;50.748;7.102;2023-12-07T14:39:53;5.00;99.90
32446;DHT22;18899;50.748;7.102;2023-12-07T14:42:18;5.00;99.90
32446;DHT22;18899;50.748;7.102;2023-12-07T14:44:44;5.10;99.90
32446;DHT22;18899;50.748;7.102;2023-12-07T14:47:10;5.00;99.90
32446;DHT22;18899;50.748;7.102;2023-12-07T14:49:36;5.00;99.90
32446;DHT22;18899;50.748;7.102;2023-12-07T14:52:01;5.10;99.90
32446;DHT22;18899;50.748;7.102;2023-12-07T14:54:27;4.90;99.90
32446;DHT22;18899;50.748;7.102;2023-12-07T14:56:53;4.80;99.90
32446;DHT22;18899;50.748;7.102;2023-12-07T14:59:18;4.70;99.90
32446;DHT22;18899;50.748;7.102;2023-12-07T15:01:45;4.80;99.90
32446;DHT22;18899;50.748;7.102;2023-12-07T15:04:11;4.80;99.90
32446;DHT22;18899;50.748;7.102;2023-12-07T15:06:36;4.80;99.90
32446;DHT22;18899;50.748;7.102;2023-12-07T15:09:02;4.80;99.90
32446;DHT22;18899;50.748;7.102;2023-12-07T15:11:35;4.80;99.90
32446;DHT22;18899;50.748;7.102;2023-12-07T15:14:02;4.80;99.90
32446;DHT22;18899;50.748;7.102;2023-12-07T15:16:28;4.80;99.90
32446;DHT22;18899;50.748;7.102;2023-12-07T15:18:54;4.80;99.90
32446;DHT22;18899;50.748;7.102;2023-12-07T15:21:19;4.70;99.90
32446;DHT22;18899;50.748;7.102;2023-12-07T15:23:45;4.80;99.90
32446;DHT22;18899;50.748;7.102;2023-12-07T15:26:11;4.90;99.90
32446;DHT22;18899;50.748;7.102;2023-12-07T15:28:37;4.80;99.90
32446;DHT22;18899;50.748;7.102;2023-12-07T15:31:04;4.80;99.90
32446;DHT22;18899;50.748;7.102;2023-12-07T15:33:31;4.80;99.90
32446;DHT22;18899;50.748;7.102;2023-12-07T15:35:57;4.80;99.90
32446;DHT22;18899;50.748;7.102;2023-12-07T15:38:22;4.70;99.90
32446;DHT22;18899;50.748;7.102;2023-12-07T15:40:48;4.60;99.90
32446;DHT22;18899;50.748;7.102;2023-12-07T15:43:14;4.50;99.90